• Join FlightAware (Why Join?)
  • Login
  • US Flag 
11:21PM EDT


 

Airport Tracker/Info


-or-


 

Live Flight TrackerFlight Track Log ✈ ERR781 ✈ 09-Sep-2013 ✈ PASC / SCC - PAFA / FAI

Flight Track Log - Related Links

Times and Time Zones

All times are in EDT time to prevent confusion due to time zone crossing. See the ERR781 flight status page for this flight to view local times or setup timezone preferences in your user account.

Time Position Orientation Groundspeed Altitude Reporting Facility
EDT Latitude Longitude Course Direction KTS MPH feet Rate Location/Type
05:31PM 70.1833 -148.3167 181° South 150 173 1,900  Level Anchorage Center
05:32PM 70.1333 -148.3667 199° South 150 173 3,400 1,320 Climbing Anchorage Center
05:33PM 70.1167 -148.4000 214° Southwest 170 196 4,600 780 Climbing Anchorage Center
05:34PM 70.0667 -148.4167 186° South 200 230 5,000 180 Climbing Anchorage Center
05:35PM 70.0000 -148.4167 180° South 230 265 5,000 660 Level Anchorage Center
05:36PM 69.9333 -148.4167 180° South 200 230 6,400 1,440 Climbing Anchorage Center
05:37PM 69.8471 -148.4170 181° South  Level Estimated
05:37PM 69.8833 -148.4000 173° South 170 196 7,900  Level Anchorage Center
05:38PM 69.8333 -148.3833 173° South 170 196 9,400 1,320 Climbing Anchorage Center
05:39PM 69.7833 -148.3833 180° South 190 219 10,600 1,200 Climbing Anchorage Center
05:40PM 69.7333 -148.3833 180° South 190 219 11,900 1,200 Climbing Anchorage Center
05:41PM 69.6833 -148.3667 173° South 190 219 13,100 1,080 Climbing Anchorage Center
05:42PM 69.6333 -148.3667 180° South 200 230 14,100 1,140 Climbing Anchorage Center
05:43PM 69.5833 -148.3667 180° South 190 219 15,400 1,200 Climbing Anchorage Center
05:44PM 69.5167 -148.3500 175° South 200 230 16,500 1,020 Climbing Anchorage Center
05:45PM 69.4667 -148.3500 180° South 200 230 17,500 960 Climbing Anchorage Center
05:46PM 69.4167 -148.3333 173° South 190 219 18,500 1,020 Climbing Anchorage Center
05:47PM 69.3667 -148.3333 180° South 190 219 19,600 900 Climbing Anchorage Center
05:48PM 69.3167 -148.3167 173° South 190 219 20,400 840 Climbing Anchorage Center
05:49PM 69.2667 -148.3167 180° South 190 219 21,300 900 Climbing Anchorage Center
05:50PM 69.2167 -148.3167 180° South 190 219 22,200 840 Climbing Anchorage Center
05:51PM 69.1667 -148.3000 173° South 180 207 23,000 360 Climbing Anchorage Center
05:52PM 69.1000 -148.3000 180° South 200 230 23,000  Level Anchorage Center
05:53PM 69.0500 -148.2833 173° South 230 265 23,000  Level Anchorage Center
05:54PM 68.9833 -148.2833 180° South 220 253 23,000  Level Anchorage Center
05:55PM 68.9167 -148.2667 175° South 240 276 23,000  Level Anchorage Center
05:56PM 68.8500 -148.2667 180° South 230 265 23,000  Level Anchorage Center
05:57PM 68.7833 -148.2500 175° South 240 276 23,000  Level Anchorage Center
05:58PM 68.7333 -148.2500 180° South 240 276 23,000  Level Anchorage Center
05:59PM 68.6667 -148.2500 180° South 220 253 23,000  Level Anchorage Center
06:00PM 68.6000 -148.2333 175° South 230 265 23,000  Level Anchorage Center
06:01PM 68.5333 -148.2333 180° South 230 265 23,000  Level Anchorage Center
06:02PM 68.4667 -148.2167 175° South 240 276 23,000  Level Anchorage Center
06:03PM 68.4000 -148.2167 180° South 240 276 23,000  Level Anchorage Center
06:04PM 68.3333 -148.2000 175° South 230 265 23,000  Level Anchorage Center
06:05PM 68.2667 -148.2000 180° South 240 276 23,000  Level Anchorage Center
06:06PM 68.2167 -148.1833 173° South 230 265 23,000  Level Anchorage Center
06:07PM 68.1500 -148.1833 180° South 240 276 23,000  Level Anchorage Center
06:08PM 68.0833 -148.1667 175° South 230 265 23,000  Level Anchorage Center
06:09PM 68.0000 -148.1667 180° South 250 288 23,000  Level Anchorage Center
06:10PM 67.9333 -148.1500 175° South 240 276 23,000  Level Anchorage Center
06:11PM 67.8667 -148.1500 180° South 240 276 23,000  Level Anchorage Center
06:12PM 67.8000 -148.1500 180° South 240 276 23,000  Level Anchorage Center
06:13PM 67.7500 -148.1333 173° South 240 276 23,000  Level Anchorage Center
06:14PM 67.6667 -148.1333 180° South 250 288 23,000  Level Anchorage Center
06:15PM 67.6000 -148.1333 180° South 240 276 23,000  Level Anchorage Center
06:16PM 67.5333 -148.1167 175° South 240 276 23,000  Level Anchorage Center
06:17PM 67.4833 -148.1000 173° South 230 265 23,000  Level Anchorage Center
06:18PM 67.4167 -148.1000 180° South 250 288 23,000  Level Anchorage Center
06:19PM 67.3500 -148.0833 175° South 230 265 23,000  Level Anchorage Center
06:20PM 67.2667 -148.0833 180° South 250 288 23,000  Level Anchorage Center
06:21PM 67.2000 -148.0833 180° South 240 276 23,000  Level Anchorage Center
06:22PM 67.1333 -148.0667 174° South 250 288 23,000  Level Anchorage Center
06:23PM 67.0667 -148.0667 180° South 240 276 23,000  Level Anchorage Center
06:24PM 67.0000 -148.0667 180° South 240 276 23,000  Level Anchorage Center
06:25PM 66.9333 -148.0500 174° South 250 288 23,000  Level Anchorage Center
06:26PM 66.8667 -148.0500 180° South 240 276 23,000  Level Anchorage Center
06:27PM 66.8000 -148.0333 174° South 230 265 23,000  Level Anchorage Center
06:28PM 66.7333 -148.0333 180° South 240 276 23,000  Level Anchorage Center
06:29PM 66.6667 -148.0167 174° South 250 288 23,000  Level Anchorage Center
06:30PM 66.6000 -148.0167 180° South 240 276 23,000  Level Anchorage Center
06:31PM 66.5333 -148.0000 174° South 240 276 23,000  Level Anchorage Center
06:32PM 66.4667 -148.0000 180° South 250 288 23,000  Level Anchorage Center
06:33PM 66.4000 -148.0000 180° South 230 265 23,000  Level Anchorage Center
06:34PM 66.3333 -147.9833 174° South 250 288 23,000  Level Anchorage Center
06:35PM 66.2667 -147.9833 180° South 240 276 23,000  Level Anchorage Center
06:36PM 66.2000 -147.9833 180° South 240 276 23,000 -540 Level Anchorage Center
06:37PM 66.1333 -147.9667 174° South 250 288 22,000 -1,080 Descending Anchorage Center
06:38PM 66.0500 -147.9667 180° South 290 334 20,900 -1,200 Descending Anchorage Center
06:39PM 65.9667 -147.9500 175° South 270 311 19,600 -1,200 Descending Anchorage Center
06:40PM 65.9000 -147.9333 174° South 270 311 18,500 -1,320 Descending Anchorage Center
06:41PM 65.8167 -147.9333 180° South 270 311 17,000 -1,380 Descending Anchorage Center
06:42PM 65.7500 -147.9333 180° South 280 322 15,800 -1,260 Descending Anchorage Center
06:43PM 65.6667 -147.9167 175° South 280 322 14,500 -1,140 Descending Anchorage Center
06:44PM 65.6000 -147.9167 180° South 270 311 13,600 -900 Descending Anchorage Center
06:45PM 65.5167 -147.9167 180° South 270 311 12,800 -840 Descending Anchorage Center
06:47PM 65.4535 -147.9061 176° South  Level FlightAware Approximate
06:54PM 65.0247 -147.8667 180° South  Level FlightAware Approximate
06:55PM 64.9634 -147.8667 180° South  Level FlightAware Approximate
06:56PM 64.9023 -147.8571 175° South  Level FlightAware Approximate
06:57PM 64.8411 -147.8500 180° South  Level FlightAware Approximate
06:58PM 64.8151 -147.8564 180° South  Level Estimated
06:59PM 64.8151 -147.8564 180° South  Level Estimated
07:00PM 64.8151 -147.8564 180° South  Level Estimated
07:01PM 64.8151 -147.8564 180° South  Level Estimated
07:02PM 64.8151 -147.8564 180° South  Level Estimated
07:03PM 64.8151 -147.8564 180° South  Level Estimated
07:04PM 64.8151 -147.8564 180° South  Level Estimated
07:05PM 64.8151 -147.8564 180° South  Level Estimated
07:06PM 64.8151 -147.8564 180° South  Level Estimated
07:07PM 64.8151 -147.8564 180° South  Level Estimated
07:08PM 64.8151 -147.8564 180° South  Level Estimated
07:09PM 64.8151 -147.8564 180° South  Level Estimated
07:10PM 64.8151 -147.8564 180° South  Level Estimated
07:11PM 64.8151 -147.8564 180° South  Level Estimated
07:12PM 64.8151 -147.8564 180° South  Level Estimated
07:13PM 64.8151 -147.8564 180° South  Level Estimated
07:14PM 64.8151 -147.8564 180° South  Level Estimated
07:15PM 64.8151 -147.8564 180° South  Level Estimated